sensor_id;sensor_type;location;lat;lon;timestamp;P1;durP1;ratioP1;P2;durP2;ratioP2
47329;SDS011;33060;50.178;7.570;2023-10-31T00:00:10;0.70;;;0.00;;
47329;SDS011;33060;50.178;7.570;2023-10-31T00:02:38;0.95;;;0.10;;
47329;SDS011;33060;50.178;7.570;2023-10-31T00:05:16;0.90;;;0.03;;
47329;SDS011;33060;50.178;7.570;2023-10-31T00:07:46;0.60;;;0.00;;
47329;SDS011;33060;50.178;7.570;2023-10-31T00:12:40;0.35;;;0.00;;
47329;SDS011;33060;50.178;7.570;2023-10-31T00:15:06;0.85;;;0.10;;
47329;SDS011;33060;50.178;7.570;2023-10-31T00:17:33;1.10;;;0.10;;
47329;SDS011;33060;50.178;7.570;2023-10-31T00:22:27;0.60;;;0.00;;
47329;SDS011;33060;50.178;7.570;2023-10-31T00:24:53;1.25;;;0.00;;
47329;SDS011;33060;50.178;7.570;2023-10-31T00:27:20;0.60;;;0.00;;
47329;SDS011;33060;50.178;7.570;2023-10-31T00:29:47;2.03;;;0.28;;
47329;SDS011;33060;50.178;7.570;2023-10-31T00:32:14;0.80;;;0.03;;
47329;SDS011;33060;50.178;7.570;2023-10-31T00:37:07;0.80;;;0.00;;
47329;SDS011;33060;50.178;7.570;2023-10-31T00:39:34;0.63;;;0.00;;
47329;SDS011;33060;50.178;7.570;2023-10-31T00:44:27;1.42;;;0.00;;
47329;SDS011;33060;50.178;7.570;2023-10-31T00:49:21;0.43;;;0.00;;
47329;SDS011;33060;50.178;7.570;2023-10-31T00:51:47;1.17;;;0.00;;
47329;SDS011;33060;50.178;7.570;2023-10-31T00:54:14;0.80;;;0.10;;
47329;SDS011;33060;50.178;7.570;2023-10-31T00:56:41;1.20;;;0.10;;
47329;SDS011;33060;50.178;7.570;2023-10-31T00:59:07;1.00;;;0.00;;
47329;SDS011;33060;50.178;7.570;2023-10-31T01:01:34;0.98;;;0.00;;
47329;SDS011;33060;50.178;7.570;2023-10-31T01:06:27;1.08;;;0.00;;
47329;SDS011;33060;50.178;7.570;2023-10-31T01:11:21;1.27;;;0.00;;
47329;SDS011;33060;50.178;7.570;2023-10-31T01:13:47;0.90;;;0.00;;
47329;SDS011;33060;50.178;7.570;2023-10-31T01:16:15;0.95;;;0.17;;
47329;SDS011;33060;50.178;7.570;2023-10-31T01:18:43;0.60;;;0.03;;
47329;SDS011;33060;50.178;7.570;2023-10-31T01:21:11;0.73;;;0.00;;
47329;SDS011;33060;50.178;7.570;2023-10-31T01:26:04;1.40;;;0.10;;
47329;SDS011;33060;50.178;7.570;2023-10-31T01:30:57;0.77;;;0.10;;
47329;SDS011;33060;50.178;7.570;2023-10-31T01:33:24;2.55;;;0.00;;
47329;SDS011;33060;50.178;7.570;2023-10-31T01:35:51;1.45;;;0.20;;
47329;SDS011;33060;50.178;7.570;2023-10-31T01:38:17;1.25;;;0.20;;
47329;SDS011;33060;50.178;7.570;2023-10-31T01:40:47;0.50;;;0.00;;
47329;SDS011;33060;50.178;7.570;2023-10-31T01:43:28;0.75;;;0.03;;
47329;SDS011;33060;50.178;7.570;2023-10-31T01:45:59;1.80;;;0.10;;
47329;SDS011;33060;50.178;7.570;2023-10-31T01:48:27;0.73;;;0.00;;
47329;SDS011;33060;50.178;7.570;2023-10-31T01:50:58;1.00;;;0.20;;
47329;SDS011;33060;50.178;7.570;2023-10-31T01:53:26;0.63;;;0.10;;
47329;SDS011;33060;50.178;7.570;2023-10-31T01:55:58;1.52;;;0.10;;
47329;SDS011;33060;50.178;7.570;2023-10-31T01:58:29;1.77;;;0.10;;
47329;SDS011;33060;50.178;7.570;2023-10-31T02:00:58;1.17;;;0.10;;
47329;SDS011;33060;50.178;7.570;2023-10-31T02:03:26;0.88;;;0.10;;
47329;SDS011;33060;50.178;7.570;2023-10-31T02:05:56;0.77;;;0.10;;
47329;SDS011;33060;50.178;7.570;2023-10-31T02:08:24;1.27;;;0.10;;
47329;SDS011;33060;50.178;7.570;2023-10-31T02:10:51;0.75;;;0.05;;
47329;SDS011;33060;50.178;7.570;2023-10-31T02:13:18;1.55;;;0.20;;
47329;SDS011;33060;50.178;7.570;2023-10-31T02:18:11;1.20;;;0.03;;
47329;SDS011;33060;50.178;7.570;2023-10-31T02:20:39;0.60;;;0.10;;
47329;SDS011;33060;50.178;7.570;2023-10-31T02:23:06;1.65;;;0.10;;
47329;SDS011;33060;50.178;7.570;2023-10-31T02:27:59;1.05;;;0.00;;
47329;SDS011;33060;50.178;7.570;2023-10-31T02:30:26;2.33;;;0.10;;
47329;SDS011;33060;50.178;7.570;2023-10-31T02:32:53;1.42;;;0.10;;
47329;SDS011;33060;50.178;7.570;2023-10-31T02:35:20;1.02;;;0.00;;
47329;SDS011;33060;50.178;7.570;2023-10-31T02:37:47;2.58;;;0.10;;
47329;SDS011;33060;50.178;7.570;2023-10-31T02:40:14;0.63;;;0.00;;
47329;SDS011;33060;50.178;7.570;2023-10-31T02:45:08;0.85;;;0.10;;
47329;SDS011;33060;50.178;7.570;2023-10-31T02:47:35;1.65;;;0.20;;
47329;SDS011;33060;50.178;7.570;2023-10-31T02:52:29;1.83;;;0.20;;
47329;SDS011;33060;50.178;7.570;2023-10-31T02:54:55;1.67;;;0.30;;
47329;SDS011;33060;50.178;7.570;2023-10-31T02:57:22;2.47;;;0.28;;
47329;SDS011;33060;50.178;7.570;2023-10-31T03:02:21;1.50;;;0.17;;
47329;SDS011;33060;50.178;7.570;2023-10-31T03:07:15;1.65;;;0.30;;
47329;SDS011;33060;50.178;7.570;2023-10-31T03:09:42;1.40;;;0.20;;
47329;SDS011;33060;50.178;7.570;2023-10-31T03:12:08;1.40;;;0.10;;
47329;SDS011;33060;50.178;7.570;2023-10-31T03:14:35;1.25;;;0.20;;
47329;SDS011;33060;50.178;7.570;2023-10-31T03:17:02;1.80;;;0.40;;
47329;SDS011;33060;50.178;7.570;2023-10-31T03:21:55;1.80;;;0.50;;
47329;SDS011;33060;50.178;7.570;2023-10-31T03:24:22;2.30;;;0.40;;
47329;SDS011;33060;50.178;7.570;2023-10-31T03:26:48;1.92;;;0.60;;
47329;SDS011;33060;50.178;7.570;2023-10-31T03:29:15;1.77;;;0.38;;
47329;SDS011;33060;50.178;7.570;2023-10-31T03:31:42;3.80;;;0.60;;
47329;SDS011;33060;50.178;7.570;2023-10-31T03:36:35;1.63;;;0.32;;
47329;SDS011;33060;50.178;7.570;2023-10-31T03:39:01;1.30;;;0.22;;
47329;SDS011;33060;50.178;7.570;2023-10-31T03:41:29;1.23;;;0.10;;
47329;SDS011;33060;50.178;7.570;2023-10-31T03:43:56;1.33;;;0.10;;
47329;SDS011;33060;50.178;7.570;2023-10-31T03:48:49;1.10;;;0.10;;
47329;SDS011;33060;50.178;7.570;2023-10-31T03:53:42;1.30;;;0.10;;
47329;SDS011;33060;50.178;7.570;2023-10-31T03:56:09;0.88;;;0.00;;
47329;SDS011;33060;50.178;7.570;2023-10-31T04:01:03;1.65;;;0.13;;
47329;SDS011;33060;50.178;7.570;2023-10-31T04:05:56;1.25;;;0.20;;
47329;SDS011;33060;50.178;7.570;2023-10-31T04:10:49;1.45;;;0.30;;
47329;SDS011;33060;50.178;7.570;2023-10-31T04:15:42;1.20;;;0.20;;
47329;SDS011;33060;50.178;7.570;2023-10-31T04:18:09;2.38;;;0.40;;
47329;SDS011;33060;50.178;7.570;2023-10-31T04:23:02;1.80;;;0.60;;
47329;SDS011;33060;50.178;7.570;2023-10-31T04:27:56;2.00;;;0.70;;
47329;SDS011;33060;50.178;7.570;2023-10-31T04:30:23;2.60;;;0.70;;
47329;SDS011;33060;50.178;7.570;2023-10-31T04:32:49;1.52;;;0.50;;
47329;SDS011;33060;50.178;7.570;2023-10-31T04:35:16;1.80;;;0.68;;
47329;SDS011;33060;50.178;7.570;2023-10-31T04:40:10;2.25;;;0.60;;
47329;SDS011;33060;50.178;7.570;2023-10-31T04:42:38;2.45;;;0.47;;
47329;SDS011;33060;50.178;7.570;2023-10-31T04:45:06;2.83;;;0.60;;
47329;SDS011;33060;50.178;7.570;2023-10-31T04:47:34;2.88;;;0.57;;
47329;SDS011;33060;50.178;7.570;2023-10-31T04:50:01;1.70;;;0.43;;
47329;SDS011;33060;50.178;7.570;2023-10-31T04:54:54;1.60;;;0.45;;
47329;SDS011;33060;50.178;7.570;2023-10-31T04:57:21;1.42;;;0.30;;
47329;SDS011;33060;50.178;7.570;2023-10-31T04:59:47;1.70;;;0.35;;
47329;SDS011;33060;50.178;7.570;2023-10-31T05:02:21;1.45;;;0.30;;
47329;SDS011;33060;50.178;7.570;2023-10-31T05:04:49;1.90;;;0.50;;
47329;SDS011;33060;50.178;7.570;2023-10-31T05:07:19;1.60;;;0.43;;
47329;SDS011;33060;50.178;7.570;2023-10-31T05:09:46;2.42;;;0.40;;
47329;SDS011;33060;50.178;7.570;2023-10-31T05:12:13;1.90;;;0.63;;
47329;SDS011;33060;50.178;7.570;2023-10-31T05:17:06;1.90;;;0.70;;
47329;SDS011;33060;50.178;7.570;2023-10-31T05:22:00;1.98;;;0.70;;
47329;SDS011;33060;50.178;7.570;2023-10-31T05:24:26;2.10;;;0.70;;
47329;SDS011;33060;50.178;7.570;2023-10-31T05:26:53;2.55;;;0.60;;
47329;SDS011;33060;50.178;7.570;2023-10-31T05:29:19;2.13;;;0.98;;
47329;SDS011;33060;50.178;7.570;2023-10-31T05:31:46;2.08;;;0.80;;
47329;SDS011;33060;50.178;7.570;2023-10-31T05:36:40;2.70;;;0.90;;
47329;SDS011;33060;50.178;7.570;2023-10-31T05:39:07;2.40;;;0.80;;
47329;SDS011;33060;50.178;7.570;2023-10-31T05:41:34;2.42;;;1.05;;
47329;SDS011;33060;50.178;7.570;2023-10-31T05:44:01;2.38;;;0.90;;
47329;SDS011;33060;50.178;7.570;2023-10-31T05:46:28;2.88;;;1.30;;
47329;SDS011;33060;50.178;7.570;2023-10-31T05:48:55;2.35;;;0.90;;
47329;SDS011;33060;50.178;7.570;2023-10-31T05:51:22;2.88;;;1.20;;
47329;SDS011;33060;50.178;7.570;2023-10-31T05:53:48;2.13;;;0.90;;
47329;SDS011;33060;50.178;7.570;2023-10-31T05:58:42;2.00;;;0.70;;
47329;SDS011;33060;50.178;7.570;2023-10-31T06:01:09;2.95;;;0.70;;
47329;SDS011;33060;50.178;7.570;2023-10-31T06:03:36;3.60;;;1.05;;
47329;SDS011;33060;50.178;7.570;2023-10-31T06:06:03;2.72;;;0.70;;
47329;SDS011;33060;50.178;7.570;2023-10-31T06:08:31;3.33;;;0.98;;
47329;SDS011;33060;50.178;7.570;2023-10-31T06:10:58;2.13;;;0.88;;
47329;SDS011;33060;50.178;7.570;2023-10-31T06:13:27;2.50;;;0.98;;
47329;SDS011;33060;50.178;7.570;2023-10-31T06:18:25;2.80;;;1.30;;
47329;SDS011;33060;50.178;7.570;2023-10-31T06:20:53;3.13;;;1.23;;
47329;SDS011;33060;50.178;7.570;2023-10-31T06:23:19;3.53;;;1.30;;
47329;SDS011;33060;50.178;7.570;2023-10-31T06:25:46;3.65;;;1.10;;
47329;SDS011;33060;50.178;7.570;2023-10-31T06:30:39;2.30;;;0.90;;
47329;SDS011;33060;50.178;7.570;2023-10-31T06:33:06;2.80;;;0.90;;
47329;SDS011;33060;50.178;7.570;2023-10-31T06:35:34;1.83;;;0.60;;
47329;SDS011;33060;50.178;7.570;2023-10-31T06:38:00;2.00;;;0.65;;
47329;SDS011;33060;50.178;7.570;2023-10-31T06:40:27;2.50;;;0.90;;
47329;SDS011;33060;50.178;7.570;2023-10-31T06:42:54;2.92;;;1.13;;
47329;SDS011;33060;50.178;7.570;2023-10-31T06:45:21;6.00;;;1.35;;
47329;SDS011;33060;50.178;7.570;2023-10-31T06:50:14;2.17;;;0.70;;
47329;SDS011;33060;50.178;7.570;2023-10-31T06:52:46;2.30;;;1.10;;
47329;SDS011;33060;50.178;7.570;2023-10-31T06:55:13;2.55;;;1.17;;
47329;SDS011;33060;50.178;7.570;2023-10-31T07:00:06;2.20;;;0.70;;
47329;SDS011;33060;50.178;7.570;2023-10-31T07:02:35;5.68;;;0.93;;
47329;SDS011;33060;50.178;7.570;2023-10-31T07:05:13;4.90;;;1.10;;
47329;SDS011;33060;50.178;7.570;2023-10-31T07:07:40;3.83;;;1.17;;
47329;SDS011;33060;50.178;7.570;2023-10-31T07:12:34;2.15;;;0.80;;
47329;SDS011;33060;50.178;7.570;2023-10-31T07:15:00;2.40;;;0.70;;
47329;SDS011;33060;50.178;7.570;2023-10-31T07:19:54;2.97;;;0.60;;
47329;SDS011;33060;50.178;7.570;2023-10-31T07:22:20;2.35;;;0.77;;
47329;SDS011;33060;50.178;7.570;2023-10-31T07:24:49;3.08;;;1.25;;
47329;SDS011;33060;50.178;7.570;2023-10-31T07:27:16;2.92;;;0.73;;
47329;SDS011;33060;50.178;7.570;2023-10-31T07:29:43;3.25;;;0.88;;
47329;SDS011;33060;50.178;7.570;2023-10-31T07:32:10;2.30;;;0.45;;
47329;SDS011;33060;50.178;7.570;2023-10-31T07:34:40;3.13;;;0.85;;
47329;SDS011;33060;50.178;7.570;2023-10-31T07:37:08;3.28;;;1.30;;
47329;SDS011;33060;50.178;7.570;2023-10-31T07:39:35;3.13;;;0.70;;
47329;SDS011;33060;50.178;7.570;2023-10-31T07:42:02;2.60;;;0.88;;
47329;SDS011;33060;50.178;7.570;2023-10-31T07:44:28;3.15;;;0.90;;
47329;SDS011;33060;50.178;7.570;2023-10-31T07:46:55;2.65;;;0.90;;
47329;SDS011;33060;50.178;7.570;2023-10-31T07:51:49;2.75;;;0.88;;
47329;SDS011;33060;50.178;7.570;2023-10-31T07:56:42;2.92;;;1.10;;
47329;SDS011;33060;50.178;7.570;2023-10-31T08:01:36;4.03;;;0.82;;
47329;SDS011;33060;50.178;7.570;2023-10-31T08:04:03;1.90;;;0.60;;
47329;SDS011;33060;50.178;7.570;2023-10-31T08:06:30;4.43;;;0.60;;
47329;SDS011;33060;50.178;7.570;2023-10-31T08:08:57;2.17;;;0.73;;
47329;SDS011;33060;50.178;7.570;2023-10-31T08:11:23;3.55;;;0.90;;
47329;SDS011;33060;50.178;7.570;2023-10-31T08:13:50;2.38;;;0.68;;
47329;SDS011;33060;50.178;7.570;2023-10-31T08:18:45;3.05;;;1.05;;
47329;SDS011;33060;50.178;7.570;2023-10-31T08:21:12;2.22;;;0.70;;
47329;SDS011;33060;50.178;7.570;2023-10-31T08:23:39;1.98;;;0.40;;
47329;SDS011;33060;50.178;7.570;2023-10-31T08:28:32;1.90;;;0.65;;
47329;SDS011;33060;50.178;7.570;2023-10-31T08:31:00;2.17;;;0.98;;
47329;SDS011;33060;50.178;7.570;2023-10-31T08:35:53;3.13;;;0.82;;
47329;SDS011;33060;50.178;7.570;2023-10-31T08:38:20;2.80;;;0.82;;
47329;SDS011;33060;50.178;7.570;2023-10-31T08:40:57;4.13;;;0.98;;
47329;SDS011;33060;50.178;7.570;2023-10-31T08:43:24;2.78;;;0.95;;
47329;SDS011;33060;50.178;7.570;2023-10-31T08:48:19;2.47;;;0.80;;
47329;SDS011;33060;50.178;7.570;2023-10-31T08:50:45;2.65;;;0.82;;
47329;SDS011;33060;50.178;7.570;2023-10-31T08:53:12;3.72;;;0.82;;
47329;SDS011;33060;50.178;7.570;2023-10-31T08:58:06;2.30;;;0.70;;
47329;SDS011;33060;50.178;7.570;2023-10-31T09:00:33;3.15;;;0.95;;
47329;SDS011;33060;50.178;7.570;2023-10-31T09:03:05;3.45;;;0.88;;
47329;SDS011;33060;50.178;7.570;2023-10-31T09:05:33;3.70;;;0.85;;
47329;SDS011;33060;50.178;7.570;2023-10-31T09:08:00;1.85;;;0.43;;
47329;SDS011;33060;50.178;7.570;2023-10-31T09:10:26;3.10;;;0.73;;
47329;SDS011;33060;50.178;7.570;2023-10-31T09:12:53;3.33;;;1.30;;
47329;SDS011;33060;50.178;7.570;2023-10-31T09:15:20;1.77;;;0.25;;
47329;SDS011;33060;50.178;7.570;2023-10-31T09:17:47;2.03;;;0.50;;
47329;SDS011;33060;50.178;7.570;2023-10-31T09:20:16;3.92;;;1.00;;
47329;SDS011;33060;50.178;7.570;2023-10-31T09:25:09;2.45;;;0.60;;
47329;SDS011;33060;50.178;7.570;2023-10-31T09:27:40;2.88;;;0.60;;
47329;SDS011;33060;50.178;7.570;2023-10-31T09:30:07;3.17;;;0.75;;
47329;SDS011;33060;50.178;7.570;2023-10-31T09:32:35;3.35;;;1.10;;
47329;SDS011;33060;50.178;7.570;2023-10-31T09:35:02;3.70;;;0.60;;
47329;SDS011;33060;50.178;7.570;2023-10-31T09:37:29;2.47;;;0.80;;
47329;SDS011;33060;50.178;7.570;2023-10-31T09:39:56;2.17;;;0.60;;
47329;SDS011;33060;50.178;7.570;2023-10-31T09:42:22;3.78;;;0.50;;
47329;SDS011;33060;50.178;7.570;2023-10-31T09:47:16;2.85;;;0.45;;
47329;SDS011;33060;50.178;7.570;2023-10-31T09:49:43;2.45;;;0.50;;
47329;SDS011;33060;50.178;7.570;2023-10-31T09:52:11;2.28;;;0.60;;
47329;SDS011;33060;50.178;7.570;2023-10-31T09:57:04;2.55;;;0.30;;
47329;SDS011;33060;50.178;7.570;2023-10-31T09:59:32;1.98;;;0.65;;
47329;SDS011;33060;50.178;7.570;2023-10-31T10:01:59;1.88;;;0.60;;
47329;SDS011;33060;50.178;7.570;2023-10-31T10:07:00;2.55;;;0.63;;
47329;SDS011;33060;50.178;7.570;2023-10-31T10:09:27;2.70;;;1.10;;
47329;SDS011;33060;50.178;7.570;2023-10-31T10:11:55;3.05;;;1.38;;
47329;SDS011;33060;50.178;7.570;2023-10-31T10:14:23;4.35;;;0.80;;
47329;SDS011;33060;50.178;7.570;2023-10-31T10:16:50;2.70;;;0.90;;
47329;SDS011;33060;50.178;7.570;2023-10-31T10:19:21;2.53;;;1.02;;
47329;SDS011;33060;50.178;7.570;2023-10-31T10:21:49;3.78;;;1.20;;
47329;SDS011;33060;50.178;7.570;2023-10-31T10:24:18;3.38;;;1.10;;
47329;SDS011;33060;50.178;7.570;2023-10-31T10:26:46;4.28;;;0.55;;
47329;SDS011;33060;50.178;7.570;2023-10-31T10:29:14;2.30;;;0.30;;
47329;SDS011;33060;50.178;7.570;2023-10-31T10:31:42;4.38;;;1.05;;
47329;SDS011;33060;50.178;7.570;2023-10-31T10:34:09;3.20;;;1.05;;
47329;SDS011;33060;50.178;7.570;2023-10-31T10:36:36;2.38;;;0.80;;
47329;SDS011;33060;50.178;7.570;2023-10-31T10:41:30;2.85;;;0.85;;
47329;SDS011;33060;50.178;7.570;2023-10-31T10:44:05;3.53;;;0.63;;
47329;SDS011;33060;50.178;7.570;2023-10-31T10:46:34;2.42;;;0.60;;
47329;SDS011;33060;50.178;7.570;2023-10-31T10:49:06;2.15;;;0.70;;
47329;SDS011;33060;50.178;7.570;2023-10-31T10:51:42;3.38;;;0.73;;
47329;SDS011;33060;50.178;7.570;2023-10-31T10:54:15;2.17;;;0.47;;
47329;SDS011;33060;50.178;7.570;2023-10-31T10:56:59;2.83;;;0.40;;
47329;SDS011;33060;50.178;7.570;2023-10-31T10:59:42;3.22;;;1.08;;
47329;SDS011;33060;50.178;7.570;2023-10-31T11:02:15;2.58;;;0.90;;
47329;SDS011;33060;50.178;7.570;2023-10-31T11:04:44;2.58;;;0.60;;
47329;SDS011;33060;50.178;7.570;2023-10-31T11:07:11;3.72;;;0.85;;
47329;SDS011;33060;50.178;7.570;2023-10-31T11:09:39;3.92;;;0.90;;
47329;SDS011;33060;50.178;7.570;2023-10-31T11:14:32;3.50;;;0.90;;
47329;SDS011;33060;50.178;7.570;2023-10-31T11:17:01;2.20;;;0.52;;
47329;SDS011;33060;50.178;7.570;2023-10-31T11:19:32;7.72;;;1.13;;
47329;SDS011;33060;50.178;7.570;2023-10-31T11:22:01;2.75;;;0.52;;
47329;SDS011;33060;50.178;7.570;2023-10-31T11:24:30;2.60;;;1.10;;
47329;SDS011;33060;50.178;7.570;2023-10-31T11:26:59;2.00;;;0.80;;
47329;SDS011;33060;50.178;7.570;2023-10-31T11:29:27;4.20;;;0.77;;
47329;SDS011;33060;50.178;7.570;2023-10-31T11:34:22;5.78;;;0.70;;
47329;SDS011;33060;50.178;7.570;2023-10-31T11:36:52;2.10;;;0.60;;
47329;SDS011;33060;50.178;7.570;2023-10-31T11:41:53;1.83;;;0.50;;
47329;SDS011;33060;50.178;7.570;2023-10-31T11:44:22;2.38;;;1.13;;
47329;SDS011;33060;50.178;7.570;2023-10-31T11:46:52;2.00;;;0.43;;
47329;SDS011;33060;50.178;7.570;2023-10-31T11:52:16;4.45;;;0.52;;
47329;SDS011;33060;50.178;7.570;2023-10-31T11:54:44;1.90;;;0.35;;
47329;SDS011;33060;50.178;7.570;2023-10-31T11:57:11;6.15;;;1.08;;
47329;SDS011;33060;50.178;7.570;2023-10-31T12:02:17;2.65;;;0.38;;
47329;SDS011;33060;50.178;7.570;2023-10-31T12:04:45;4.20;;;1.10;;
47329;SDS011;33060;50.178;7.570;2023-10-31T12:09:45;4.90;;;0.80;;
47329;SDS011;33060;50.178;7.570;2023-10-31T12:12:15;2.03;;;0.98;;
47329;SDS011;33060;50.178;7.570;2023-10-31T12:14:41;4.22;;;0.95;;
47329;SDS011;33060;50.178;7.570;2023-10-31T12:19:36;4.63;;;0.80;;
47329;SDS011;33060;50.178;7.570;2023-10-31T12:22:11;4.40;;;0.73;;
47329;SDS011;33060;50.178;7.570;2023-10-31T12:24:39;3.22;;;0.70;;
47329;SDS011;33060;50.178;7.570;2023-10-31T12:29:33;3.28;;;0.50;;
47329;SDS011;33060;50.178;7.570;2023-10-31T12:34:26;2.85;;;0.95;;
47329;SDS011;33060;50.178;7.570;2023-10-31T12:39:21;2.20;;;0.70;;
47329;SDS011;33060;50.178;7.570;2023-10-31T12:41:50;4.40;;;1.00;;
47329;SDS011;33060;50.178;7.570;2023-10-31T12:44:20;5.32;;;0.80;;
47329;SDS011;33060;50.178;7.570;2023-10-31T12:46:51;4.25;;;0.75;;
47329;SDS011;33060;50.178;7.570;2023-10-31T12:49:19;5.60;;;1.17;;
47329;SDS011;33060;50.178;7.570;2023-10-31T12:51:56;2.30;;;0.73;;
47329;SDS011;33060;50.178;7.570;2023-10-31T12:54:33;2.83;;;0.93;;
47329;SDS011;33060;50.178;7.570;2023-10-31T12:57:06;3.85;;;0.98;;
47329;SDS011;33060;50.178;7.570;2023-10-31T12:59:34;4.25;;;1.52;;
47329;SDS011;33060;50.178;7.570;2023-10-31T13:02:03;3.85;;;1.30;;
47329;SDS011;33060;50.178;7.570;2023-10-31T13:04:40;7.05;;;1.00;;
47329;SDS011;33060;50.178;7.570;2023-10-31T13:07:07;6.05;;;0.50;;
47329;SDS011;33060;50.178;7.570;2023-10-31T13:09:35;3.15;;;0.52;;
47329;SDS011;33060;50.178;7.570;2023-10-31T13:12:05;3.00;;;0.88;;
47329;SDS011;33060;50.178;7.570;2023-10-31T13:14:33;6.32;;;1.02;;
47329;SDS011;33060;50.178;7.570;2023-10-31T13:17:01;3.05;;;0.82;;
47329;SDS011;33060;50.178;7.570;2023-10-31T13:19:29;5.40;;;1.15;;
47329;SDS011;33060;50.178;7.570;2023-10-31T13:24:23;2.35;;;1.02;;
47329;SDS011;33060;50.178;7.570;2023-10-31T13:26:50;3.20;;;1.00;;
47329;SDS011;33060;50.178;7.570;2023-10-31T13:29:20;4.68;;;1.35;;
47329;SDS011;33060;50.178;7.570;2023-10-31T13:31:47;3.47;;;0.93;;
47329;SDS011;33060;50.178;7.570;2023-10-31T13:36:40;2.88;;;1.05;;
47329;SDS011;33060;50.178;7.570;2023-10-31T13:39:07;5.05;;;1.38;;
47329;SDS011;33060;50.178;7.570;2023-10-31T13:41:35;3.97;;;1.08;;
47329;SDS011;33060;50.178;7.570;2023-10-31T13:44:02;4.57;;;1.10;;
47329;SDS011;33060;50.178;7.570;2023-10-31T13:46:30;2.78;;;0.95;;
47329;SDS011;33060;50.178;7.570;2023-10-31T13:48:59;3.08;;;1.30;;
47329;SDS011;33060;50.178;7.570;2023-10-31T13:53:52;5.38;;;2.00;;
47329;SDS011;33060;50.178;7.570;2023-10-31T13:56:19;2.15;;;0.50;;
47329;SDS011;33060;50.178;7.570;2023-10-31T13:58:46;6.35;;;1.70;;
47329;SDS011;33060;50.178;7.570;2023-10-31T14:01:13;4.47;;;1.27;;
47329;SDS011;33060;50.178;7.570;2023-10-31T14:03:40;5.28;;;1.50;;
47329;SDS011;33060;50.178;7.570;2023-10-31T14:06:07;2.70;;;0.55;;
47329;SDS011;33060;50.178;7.570;2023-10-31T14:08:34;8.13;;;1.45;;
47329;SDS011;33060;50.178;7.570;2023-10-31T14:11:01;3.97;;;0.77;;
47329;SDS011;33060;50.178;7.570;2023-10-31T14:13:29;4.90;;;1.15;;
47329;SDS011;33060;50.178;7.570;2023-10-31T14:15:56;3.03;;;1.08;;
47329;SDS011;33060;50.178;7.570;2023-10-31T14:18:23;3.83;;;1.10;;
47329;SDS011;33060;50.178;7.570;2023-10-31T14:23:16;3.38;;;1.30;;
47329;SDS011;33060;50.178;7.570;2023-10-31T14:28:10;3.95;;;1.48;;
47329;SDS011;33060;50.178;7.570;2023-10-31T14:33:03;4.22;;;0.63;;
47329;SDS011;33060;50.178;7.570;2023-10-31T14:35:30;4.05;;;1.00;;
47329;SDS011;33060;50.178;7.570;2023-10-31T14:37:57;3.45;;;0.70;;
47329;SDS011;33060;50.178;7.570;2023-10-31T14:42:50;2.70;;;0.63;;
47329;SDS011;33060;50.178;7.570;2023-10-31T14:47:43;3.13;;;0.98;;
47329;SDS011;33060;50.178;7.570;2023-10-31T14:52:36;3.50;;;1.20;;
47329;SDS011;33060;50.178;7.570;2023-10-31T14:55:04;4.15;;;1.35;;
47329;SDS011;33060;50.178;7.570;2023-10-31T14:57:31;1.55;;;0.60;;
47329;SDS011;33060;50.178;7.570;2023-10-31T14:59:57;3.42;;;0.40;;
47329;SDS011;33060;50.178;7.570;2023-10-31T15:02:25;4.15;;;0.40;;
47329;SDS011;33060;50.178;7.570;2023-10-31T15:04:53;4.20;;;0.65;;
47329;SDS011;33060;50.178;7.570;2023-10-31T15:09:46;2.97;;;0.22;;
47329;SDS011;33060;50.178;7.570;2023-10-31T15:12:14;1.67;;;0.68;;
47329;SDS011;33060;50.178;7.570;2023-10-31T15:14:41;2.47;;;0.20;;
47329;SDS011;33060;50.178;7.570;2023-10-31T15:17:08;1.88;;;0.20;;
47329;SDS011;33060;50.178;7.570;2023-10-31T15:19:35;3.92;;;0.98;;
47329;SDS011;33060;50.178;7.570;2023-10-31T15:24:28;2.53;;;0.30;;
47329;SDS011;33060;50.178;7.570;2023-10-31T15:26:57;1.33;;;0.20;;
47329;SDS011;33060;50.178;7.570;2023-10-31T15:29:23;4.05;;;0.43;;
47329;SDS011;33060;50.178;7.570;2023-10-31T15:31:50;2.78;;;0.47;;
47329;SDS011;33060;50.178;7.570;2023-10-31T15:34:21;2.67;;;0.40;;
47329;SDS011;33060;50.178;7.570;2023-10-31T15:36:48;1.98;;;0.28;;
47329;SDS011;33060;50.178;7.570;2023-10-31T15:39:15;3.35;;;0.65;;
47329;SDS011;33060;50.178;7.570;2023-10-31T15:41:43;1.77;;;0.30;;
47329;SDS011;33060;50.178;7.570;2023-10-31T15:46:36;1.92;;;0.45;;
47329;SDS011;33060;50.178;7.570;2023-10-31T15:49:05;1.40;;;0.10;;
47329;SDS011;33060;50.178;7.570;2023-10-31T15:51:32;5.15;;;0.65;;
47329;SDS011;33060;50.178;7.570;2023-10-31T15:53:59;2.15;;;0.40;;
47329;SDS011;33060;50.178;7.570;2023-10-31T15:56:26;2.33;;;0.55;;
47329;SDS011;33060;50.178;7.570;2023-10-31T15:58:53;1.65;;;0.40;;
47329;SDS011;33060;50.178;7.570;2023-10-31T16:01:20;2.00;;;0.43;;
47329;SDS011;33060;50.178;7.570;2023-10-31T16:03:55;3.22;;;0.98;;
47329;SDS011;33060;50.178;7.570;2023-10-31T16:06:23;1.80;;;0.50;;
47329;SDS011;33060;50.178;7.570;2023-10-31T16:08:50;2.65;;;0.45;;
47329;SDS011;33060;50.178;7.570;2023-10-31T16:11:16;1.92;;;0.40;;
47329;SDS011;33060;50.178;7.570;2023-10-31T16:13:44;2.60;;;0.60;;
47329;SDS011;33060;50.178;7.570;2023-10-31T16:16:10;2.83;;;0.40;;
47329;SDS011;33060;50.178;7.570;2023-10-31T16:18:37;1.77;;;0.40;;
47329;SDS011;33060;50.178;7.570;2023-10-31T16:23:33;2.05;;;0.40;;
47329;SDS011;33060;50.178;7.570;2023-10-31T16:26:00;2.28;;;0.73;;
47329;SDS011;33060;50.178;7.570;2023-10-31T16:30:57;3.15;;;1.10;;
47329;SDS011;33060;50.178;7.570;2023-10-31T16:35:50;3.72;;;0.40;;
47329;SDS011;33060;50.178;7.570;2023-10-31T16:38:17;2.10;;;0.63;;
47329;SDS011;33060;50.178;7.570;2023-10-31T16:40:44;1.88;;;0.60;;
47329;SDS011;33060;50.178;7.570;2023-10-31T16:43:11;2.83;;;0.43;;
47329;SDS011;33060;50.178;7.570;2023-10-31T16:45:37;2.28;;;0.80;;
47329;SDS011;33060;50.178;7.570;2023-10-31T16:50:31;4.47;;;1.27;;
47329;SDS011;33060;50.178;7.570;2023-10-31T16:53:01;2.97;;;0.68;;
47329;SDS011;33060;50.178;7.570;2023-10-31T16:55:30;4.13;;;0.68;;
47329;SDS011;33060;50.178;7.570;2023-10-31T16:57:57;3.10;;;0.88;;
47329;SDS011;33060;50.178;7.570;2023-10-31T17:00:24;3.35;;;0.35;;
47329;SDS011;33060;50.178;7.570;2023-10-31T17:05:18;3.92;;;0.65;;
47329;SDS011;33060;50.178;7.570;2023-10-31T17:07:45;3.13;;;0.40;;
47329;SDS011;33060;50.178;7.570;2023-10-31T17:12:38;3.63;;;0.40;;
47329;SDS011;33060;50.178;7.570;2023-10-31T17:15:05;2.40;;;0.50;;
47329;SDS011;33060;50.178;7.570;2023-10-31T17:17:33;2.10;;;0.50;;
47329;SDS011;33060;50.178;7.570;2023-10-31T17:20:00;3.70;;;0.55;;
47329;SDS011;33060;50.178;7.570;2023-10-31T17:22:27;3.55;;;0.57;;
47329;SDS011;33060;50.178;7.570;2023-10-31T17:24:56;3.65;;;0.55;;
47329;SDS011;33060;50.178;7.570;2023-10-31T17:27:23;6.22;;;2.22;;
47329;SDS011;33060;50.178;7.570;2023-10-31T17:32:16;2.13;;;0.40;;
47329;SDS011;33060;50.178;7.570;2023-10-31T17:34:48;2.17;;;0.25;;
47329;SDS011;33060;50.178;7.570;2023-10-31T17:39:42;2.67;;;0.63;;
47329;SDS011;33060;50.178;7.570;2023-10-31T17:44:35;2.40;;;0.45;;
47329;SDS011;33060;50.178;7.570;2023-10-31T17:49:29;2.58;;;0.40;;
47329;SDS011;33060;50.178;7.570;2023-10-31T17:54:24;2.90;;;0.50;;
47329;SDS011;33060;50.178;7.570;2023-10-31T17:56:51;2.35;;;0.90;;
47329;SDS011;33060;50.178;7.570;2023-10-31T18:01:44;3.03;;;0.73;;
47329;SDS011;33060;50.178;7.570;2023-10-31T18:06:37;2.00;;;0.70;;
47329;SDS011;33060;50.178;7.570;2023-10-31T18:09:04;2.22;;;0.52;;
47329;SDS011;33060;50.178;7.570;2023-10-31T18:11:32;2.13;;;0.63;;
47329;SDS011;33060;50.178;7.570;2023-10-31T18:13:59;2.88;;;0.50;;
47329;SDS011;33060;50.178;7.570;2023-10-31T18:18:52;1.75;;;0.40;;
47329;SDS011;33060;50.178;7.570;2023-10-31T18:21:19;2.00;;;0.60;;